Charter Quote
Worldwide +1-877-727-2538 Call
Select Language Lang
SAFETY RELIABILITY EXPERIENCE

Private Jet Charter Services - Zhuhai Airport (ZGSD)

Paramount Business Jets offers private jet charter flights and luxury airliner charters to and from Zhuhai Airport.

AIRPORT INFORMATION
ICAOZGSD
IATAZUH
LOCATIONZhuhai, China
FACILITY TYPEAIRPORT

At Paramount Business Jets you can hire chartered private jets to and from Zhuhai Airport with as little as 4 hours of notice. All flights booked via Paramount Business Jets are operated by certified direct air carriers that meet and exceed the FAA part 135 and 121 protocol or a foreign equivalent safety authority. Furthermore, Paramount Business Jets subscribes to ARGUS for their third party safety checks of operators, aircraft, and crews prior each and every flight to and from Zhuhai Airport and worldwide.

  • Quote a trip using Zhuhai Airport or call us 24/7 - 365 days a year at +1-877-727-2538.
Questions? Call +1-877-727-2538

METAR Weather Data at Zhuhai Airport, ZGSD, ZUH

STATIONZGSD
OBSERVEDSat Nov 8, 09:00 UTC
NOWWed Jul 24, 06:23 UTC
AGE41253:23 hr ago
WINDNNE at 13 mph
VISIBILITY4 miles
CONDITIONSlight drizzle & mist
CLOUDSovercast
TEMP66°F (19°C)
DEWPT64°F (18°C)
HUMIDITY94%
BAROMETER1017 hPa (30.03 in Hg)
METARZGSD 080900Z 02006MPS 2500 -DZ BR FEW005 OVC033 19/18 Q1017 NOSIG

Call us on +1-877-727-2538 (24 Hours) to Hire a Private Jet or Get a Quick Quote.

Find Airports Near any Location

Processing
...